createdAt,value
2023-04-03T00:00:55.131Z,0.04
2023-04-03T00:03:52.788Z,0.08
2023-04-03T00:04:52.601Z,0.10
2023-04-03T00:05:52.556Z,0.05
2023-04-03T00:06:52.540Z,0.07
2023-04-03T00:07:52.448Z,-0.01
2023-04-03T00:08:52.436Z,-0.03
2023-04-03T00:09:52.359Z,0.08
2023-04-03T00:10:52.321Z,0.08
2023-04-03T00:11:52.267Z,0.05
2023-04-03T00:12:52.212Z,0.08
2023-04-03T00:13:52.164Z,0.12
2023-04-03T00:14:52.157Z,0.15
2023-04-03T00:15:52.089Z,0.12
2023-04-03T00:16:52.053Z,0.07
2023-04-03T00:17:51.999Z,0.10
2023-04-03T00:18:51.944Z,0.07
2023-04-03T00:19:51.912Z,0.08
2023-04-03T00:20:51.845Z,0.13
2023-04-03T00:21:51.808Z,0.07
2023-04-03T00:22:51.758Z,0.04
2023-04-03T00:23:51.737Z,-0.02
2023-04-03T00:24:51.681Z,-0.05
2023-04-03T00:25:51.619Z,0.08
2023-04-03T00:26:51.571Z,0.12
2023-04-03T00:27:51.533Z,0.13
2023-04-03T00:28:51.467Z,0.04
2023-04-03T00:29:51.438Z,0.01
2023-04-03T00:30:51.615Z,-0.01
2023-04-03T00:31:51.342Z,0.10
2023-04-03T00:32:51.286Z,0.04
2023-04-03T00:33:51.254Z,0.10
2023-04-03T00:34:51.208Z,0.04
2023-04-03T00:35:51.279Z,0.08
2023-04-03T00:36:51.183Z,-0.02
2023-04-03T00:37:51.051Z,0.07
2023-04-03T00:38:51.045Z,0.01
2023-04-03T00:39:50.974Z,0.02
2023-04-03T00:40:50.969Z,-0.01
2023-04-03T00:41:50.886Z,0.02
2023-04-03T00:42:51.573Z,0.02
2023-04-03T00:43:50.764Z,0.02
2023-04-03T00:44:50.726Z,-0.01
2023-04-03T00:45:50.766Z,0.01
2023-04-03T00:46:50.667Z,0.12
2023-04-03T00:47:50.632Z,0.10
2023-04-03T00:48:50.550Z,0.16
2023-04-03T00:49:50.504Z,0.28
2023-04-03T00:50:50.454Z,0.17
2023-04-03T00:51:50.413Z,0.19
2023-04-03T00:52:50.366Z,0.15
2023-04-03T00:53:50.327Z,0.07
2023-04-03T00:54:50.271Z,0.16
2023-04-03T00:55:50.249Z,0.15
2023-04-03T00:56:50.244Z,0.17
2023-04-03T00:57:50.138Z,0.01
2023-04-03T00:58:50.134Z,0.05
2023-04-03T00:59:50.060Z,0.04
2023-04-03T01:00:50.017Z,-0.03
2023-04-03T01:01:49.988Z,0.02
2023-04-03T01:02:49.947Z,0.04
2023-04-03T01:03:49.930Z,0.12
2023-04-03T01:04:49.848Z,0.08
2023-04-03T01:05:49.791Z,0.13
2023-04-03T01:06:49.719Z,0.17
2023-04-03T01:07:49.682Z,0.22
2023-04-03T01:08:49.620Z,0.13
2023-04-03T01:09:49.610Z,0.17
2023-04-03T01:10:49.526Z,0.23
2023-04-03T01:11:49.512Z,0.41
2023-04-03T01:12:49.446Z,0.41
2023-04-03T01:13:49.455Z,0.52
2023-04-03T01:14:49.349Z,0.44
2023-04-03T01:15:49.378Z,0.67
2023-04-03T01:16:49.268Z,0.71
2023-04-03T01:17:49.239Z,0.67
2023-04-03T01:18:49.168Z,0.60
2023-04-03T01:19:49.128Z,0.53
2023-04-03T01:20:49.097Z,0.44
2023-04-03T01:21:49.035Z,0.38
2023-04-03T01:22:48.984Z,0.30
2023-04-03T01:23:48.924Z,0.25
2023-04-03T01:24:48.889Z,0.25
2023-04-03T01:25:48.872Z,0.28
2023-04-03T01:26:48.803Z,0.17
2023-04-03T01:27:48.745Z,0.34
2023-04-03T01:28:48.722Z,0.22
2023-04-03T01:29:48.654Z,0.26
2023-04-03T01:30:48.625Z,0.35
2023-04-03T01:31:48.649Z,0.33
2023-04-03T01:32:48.566Z,0.20
2023-04-03T01:33:48.464Z,0.23
2023-04-03T01:34:48.417Z,0.37
2023-04-03T01:35:48.400Z,0.41
2023-04-03T01:36:48.349Z,0.49
2023-04-03T01:37:48.294Z,0.38
2023-04-03T01:38:48.251Z,0.34
2023-04-03T01:39:48.185Z,0.31
2023-04-03T01:40:48.158Z,0.51
2023-04-03T01:41:48.111Z,0.59
2023-04-03T01:42:48.054Z,0.62
2023-04-03T01:43:48.053Z,0.60
2023-04-03T01:44:47.966Z,0.53
2023-04-03T01:45:47.988Z,0.63
2023-04-03T01:46:47.886Z,0.59
2023-04-03T01:47:47.885Z,0.53
2023-04-03T01:48:47.794Z,0.48
2023-04-03T01:49:47.721Z,0.48
2023-04-03T01:50:47.687Z,0.53
2023-04-03T01:51:47.632Z,0.40
2023-04-03T01:52:47.580Z,0.41
2023-04-03T01:53:47.590Z,0.44
2023-04-03T01:54:47.488Z,0.71
2023-04-03T01:55:47.447Z,0.70
2023-04-03T01:56:47.406Z,0.59
2023-04-03T01:57:47.370Z,0.57
2023-04-03T01:58:47.320Z,0.67
2023-04-03T01:59:47.282Z,0.89
2023-04-03T02:00:47.277Z,0.96
2023-04-03T02:01:47.188Z,0.95
2023-04-03T02:02:47.135Z,1.06
2023-04-03T02:03:47.105Z,0.98
2023-04-03T02:04:47.038Z,0.92
2023-04-03T02:05:47.003Z,0.98
2023-04-03T02:06:46.953Z,1.07
2023-04-03T02:07:46.894Z,1.17
2023-04-03T02:08:46.847Z,1.17
2023-04-03T02:09:46.798Z,1.11
2023-04-03T02:10:46.747Z,1.14
2023-04-03T02:11:46.718Z,1.26
2023-04-03T02:12:46.670Z,1.25
2023-04-03T02:13:46.606Z,1.08
2023-04-03T02:14:46.572Z,0.99
2023-04-03T02:15:46.513Z,0.98
2023-04-03T02:16:46.518Z,1.11
2023-04-03T02:17:46.480Z,1.18
2023-04-03T02:18:46.428Z,1.13
2023-04-03T02:19:46.341Z,1.02
2023-04-03T02:20:46.291Z,1.07
2023-04-03T02:21:46.255Z,1.06
2023-04-03T02:22:46.268Z,0.99
2023-04-03T02:23:46.207Z,1.04
2023-04-03T02:24:46.118Z,1.10
2023-04-03T02:25:46.061Z,1.25
2023-04-03T02:26:46.032Z,1.31
2023-04-03T02:27:46.003Z,1.53
2023-04-03T02:28:45.920Z,1.56
2023-04-03T02:29:46.714Z,1.75
2023-04-03T02:30:45.863Z,1.82
2023-04-03T02:31:45.782Z,1.86
2023-04-03T02:32:45.876Z,1.95
2023-04-03T02:33:45.679Z,2.04
2023-04-03T02:34:45.659Z,1.95
2023-04-03T02:35:45.617Z,1.93
2023-04-03T02:36:45.537Z,1.88
2023-04-03T02:37:45.500Z,1.86
2023-04-03T02:38:45.448Z,1.88
2023-04-03T02:39:45.403Z,1.98
2023-04-03T02:40:45.361Z,1.92
2023-04-03T02:41:45.328Z,1.98
2023-04-03T02:42:45.270Z,2.07
2023-04-03T02:43:45.264Z,2.07
2023-04-03T02:44:45.182Z,2.09
2023-04-03T02:45:45.153Z,1.93
2023-04-03T02:46:45.099Z,2.15
2023-04-03T02:47:45.088Z,1.88
2023-04-03T02:48:45.000Z,1.82
2023-04-03T02:49:44.982Z,1.83
2023-04-03T02:50:44.937Z,1.98
2023-04-03T02:51:44.871Z,1.92
2023-04-03T02:52:44.824Z,1.98
2023-04-03T02:53:44.782Z,1.86
2023-04-03T02:54:44.733Z,1.74
2023-04-03T02:55:44.705Z,1.79
2023-04-03T02:56:44.636Z,1.83
2023-04-03T02:57:44.638Z,1.81
2023-04-03T02:58:44.544Z,1.90
2023-04-03T02:59:44.507Z,1.86
2023-04-03T03:00:44.454Z,2.01
2023-04-03T03:01:44.460Z,1.88
2023-04-03T03:02:44.400Z,1.82
2023-04-03T03:03:44.324Z,1.85
2023-04-03T03:04:44.307Z,1.85
2023-04-03T03:05:44.256Z,1.89
2023-04-03T03:06:45.044Z,1.95
2023-04-03T03:07:44.151Z,1.92
2023-04-03T03:08:44.084Z,1.83
2023-04-03T03:09:44.062Z,1.95
2023-04-03T03:10:44.003Z,2.07
2023-04-03T03:11:43.961Z,2.01
2023-04-03T03:12:43.897Z,2.07
2023-04-03T03:13:43.894Z,2.04
2023-04-03T03:14:43.832Z,2.08
2023-04-03T03:15:43.858Z,2.02
2023-04-03T03:16:43.732Z,2.09
2023-04-03T03:17:43.754Z,2.04
2023-04-03T03:18:43.632Z,1.95
2023-04-03T03:19:43.575Z,1.95
2023-04-03T03:20:43.541Z,1.98
2023-04-03T03:21:43.487Z,1.98
2023-04-03T03:22:43.447Z,2.04
2023-04-03T03:23:43.427Z,2.04
2023-04-03T03:24:43.350Z,2.09
2023-04-03T03:25:43.332Z,2.05
2023-04-03T03:26:43.302Z,1.95
2023-04-03T03:27:43.246Z,2.04
2023-04-03T03:28:43.182Z,2.09
2023-04-03T03:29:43.162Z,2.20
2023-04-03T03:30:43.084Z,2.12
2023-04-03T03:31:43.078Z,2.14
2023-04-03T03:32:43.030Z,2.22
2023-04-03T03:33:42.962Z,2.14
2023-04-03T03:34:42.883Z,2.25
2023-04-03T03:35:42.905Z,2.20
2023-04-03T03:36:42.812Z,2.26
2023-04-03T03:37:42.760Z,2.20
2023-04-03T03:38:42.708Z,2.20
2023-04-03T03:39:42.697Z,2.30
2023-04-03T03:40:42.622Z,2.27
2023-04-03T03:41:42.570Z,2.23
2023-04-03T03:42:42.531Z,2.23
2023-04-03T03:43:42.493Z,2.22
2023-04-03T03:44:42.435Z,2.23
2023-04-03T03:45:42.401Z,2.12
2023-04-03T03:46:42.474Z,2.18
2023-04-03T03:47:42.311Z,2.26
2023-04-03T03:48:42.241Z,2.27
2023-04-03T03:49:42.250Z,2.23
2023-04-03T03:50:42.157Z,2.19
2023-04-03T03:51:42.129Z,2.19
2023-04-03T03:52:42.087Z,2.18
2023-04-03T03:53:42.029Z,2.14
2023-04-03T03:54:41.982Z,2.23
2023-04-03T03:55:41.937Z,2.22
2023-04-03T03:56:41.903Z,2.23
2023-04-03T03:57:41.851Z,2.25
2023-04-03T03:58:41.843Z,2.23
2023-04-03T03:59:41.765Z,2.23
2023-04-03T04:00:41.720Z,2.22
2023-04-03T04:01:41.696Z,2.20
2023-04-03T04:02:41.740Z,2.32
2023-04-03T04:03:41.614Z,2.20
2023-04-03T04:04:41.542Z,2.12
2023-04-03T04:05:41.495Z,2.20
2023-04-03T04:06:41.441Z,2.20
2023-04-03T04:07:41.388Z,2.18
2023-04-03T04:08:41.342Z,2.12
2023-04-03T04:09:41.332Z,2.23
2023-04-03T04:10:41.277Z,2.20
2023-04-03T04:11:41.220Z,2.15
2023-04-03T04:12:41.165Z,2.20
2023-04-03T04:13:41.141Z,2.12
2023-04-03T04:14:41.080Z,2.11
2023-04-03T04:15:41.298Z,2.05
2023-04-03T04:16:41.070Z,2.05
2023-04-03T04:17:40.932Z,2.15
2023-04-03T04:18:40.874Z,2.07
2023-04-03T04:19:40.860Z,2.01
2023-04-03T04:20:40.787Z,2.07
2023-04-03T04:21:40.752Z,2.08
2023-04-03T04:22:40.701Z,1.93
2023-04-03T04:23:40.688Z,2.01
2023-04-03T04:24:40.626Z,1.95
2023-04-03T04:25:40.562Z,2.14
2023-04-03T04:26:40.514Z,2.14
2023-04-03T04:27:40.487Z,2.12
2023-04-03T04:28:40.435Z,2.11
2023-04-03T04:29:40.385Z,2.02
2023-04-03T04:30:40.357Z,2.07
2023-04-03T04:31:40.294Z,2.07
2023-04-03T04:32:40.255Z,2.20
2023-04-03T04:33:40.194Z,2.07
2023-04-03T04:34:40.206Z,2.00
2023-04-03T04:35:40.430Z,1.93
2023-04-03T04:36:40.117Z,2.09
2023-04-03T04:37:40.008Z,2.05
2023-04-03T04:38:39.975Z,2.02
2023-04-03T04:39:39.946Z,2.11
2023-04-03T04:40:39.880Z,2.04
2023-04-03T04:41:39.851Z,2.08
2023-04-03T04:42:39.762Z,1.90
2023-04-03T04:43:39.734Z,2.04
2023-04-03T04:44:39.674Z,2.08
2023-04-03T04:45:39.946Z,2.12
2023-04-03T04:46:39.654Z,2.12
2023-04-03T04:47:39.712Z,2.11
2023-04-03T04:48:39.839Z,2.20
2023-04-03T04:49:39.479Z,2.11
2023-04-03T04:50:39.408Z,2.22
2023-04-03T04:51:50.909Z,2.23
2023-04-03T04:52:39.311Z,2.20
2023-04-03T04:53:39.291Z,2.25
2023-04-03T04:54:39.236Z,2.19
2023-04-03T04:55:39.326Z,2.09
2023-04-03T04:56:39.144Z,2.25
2023-04-03T04:57:39.192Z,2.23
2023-04-03T04:58:39.081Z,2.22
2023-04-03T04:59:39.000Z,2.11
2023-04-03T05:00:38.956Z,2.20
2023-04-03T05:01:38.945Z,2.09
2023-04-03T05:02:38.905Z,2.23
2023-04-03T05:03:38.804Z,2.09
2023-04-03T05:04:38.802Z,2.22
2023-04-03T05:05:39.158Z,2.18
2023-04-03T05:06:38.674Z,2.18
2023-04-03T05:07:38.652Z,2.23
2023-04-03T05:08:38.602Z,2.12
2023-04-03T05:09:38.576Z,2.19
2023-04-03T05:10:38.497Z,2.19
2023-04-03T05:11:38.443Z,2.08
2023-04-03T05:12:38.405Z,2.11
2023-04-03T05:13:38.368Z,2.08
2023-04-03T05:14:38.327Z,2.14
2023-04-03T05:15:38.662Z,2.11
2023-04-03T05:16:38.345Z,2.07
2023-04-03T05:17:38.241Z,2.09
2023-04-03T05:18:38.141Z,2.09
2023-04-03T05:19:38.105Z,2.07
2023-04-03T05:20:38.084Z,2.05
2023-04-03T05:21:38.006Z,2.08
2023-04-03T05:22:37.944Z,1.98
2023-04-03T05:23:37.900Z,2.08
2023-04-03T05:24:37.862Z,1.90
2023-04-03T05:25:38.162Z,2.11
2023-04-03T05:26:37.773Z,2.04
2023-04-03T05:27:37.762Z,2.01
2023-04-03T05:28:37.678Z,2.01
2023-04-03T05:29:37.647Z,2.02
2023-04-03T05:30:37.580Z,2.01
2023-04-03T05:31:37.574Z,2.02
2023-04-03T05:32:37.519Z,2.04
2023-04-03T05:33:37.452Z,2.09
2023-04-03T05:34:37.403Z,1.95
2023-04-03T05:35:37.491Z,2.07
2023-04-03T05:36:37.313Z,2.20
2023-04-03T05:37:37.269Z,2.01
2023-04-03T05:38:37.228Z,2.01
2023-04-03T05:39:37.193Z,2.02
2023-04-03T05:40:37.148Z,1.95
2023-04-03T05:41:37.088Z,2.01
2023-04-03T05:42:37.033Z,2.07
2023-04-03T05:43:36.970Z,2.12
2023-04-03T05:44:36.939Z,2.01
2023-04-03T05:45:36.922Z,2.01
2023-04-03T05:46:36.850Z,2.04
2023-04-03T05:47:36.859Z,2.11
2023-04-03T05:48:36.745Z,2.08
2023-04-03T05:49:36.693Z,2.01
2023-04-03T05:50:36.700Z,2.04
2023-04-03T05:51:36.664Z,2.05
2023-04-03T05:52:36.574Z,2.09
2023-04-03T05:53:36.528Z,2.14
2023-04-03T05:54:36.475Z,2.09
2023-04-03T05:55:36.669Z,2.11
2023-04-03T05:56:36.406Z,2.02
2023-04-03T05:57:36.462Z,2.08
2023-04-03T05:58:36.297Z,1.92
2023-04-03T05:59:36.235Z,2.05
2023-04-03T06:00:36.182Z,2.04
2023-04-03T06:01:36.149Z,2.01
2023-04-03T06:02:36.199Z,2.09
2023-04-03T06:03:38.614Z,2.19
2023-04-03T06:04:36.095Z,2.33
2023-04-03T06:05:36.138Z,2.51
2023-04-03T06:06:35.909Z,3.23
2023-04-03T06:07:35.881Z,3.96
2023-04-03T06:08:35.824Z,4.49
2023-04-03T06:09:35.779Z,4.80
2023-04-03T06:10:35.931Z,5.30
2023-04-03T06:11:35.689Z,5.73
2023-04-03T06:12:35.653Z,6.13
2023-04-03T06:13:35.603Z,6.40
2023-04-03T06:14:35.546Z,6.38
2023-04-03T06:15:35.514Z,6.40
2023-04-03T06:16:38.102Z,6.40
2023-04-03T06:17:35.456Z,6.25
2023-04-03T06:18:35.386Z,6.55
2023-04-03T06:19:35.335Z,6.82
2023-04-03T06:20:35.366Z,6.72
2023-04-03T06:21:35.258Z,7.01
2023-04-03T06:22:35.210Z,6.87
2023-04-03T06:23:37.755Z,7.32
2023-04-03T06:24:35.136Z,7.51
2023-04-03T06:25:35.092Z,7.55
2023-04-03T06:26:35.043Z,7.48
2023-04-03T06:27:35.007Z,7.67
2023-04-03T06:28:34.956Z,7.08
2023-04-03T06:29:34.920Z,7.09
2023-04-03T06:30:34.888Z,7.24
2023-04-03T06:31:35.156Z,7.62
2023-04-03T06:32:34.820Z,7.60
2023-04-03T06:33:34.756Z,7.60
2023-04-03T06:34:34.718Z,7.77
2023-04-03T06:35:34.688Z,7.63
2023-04-03T06:36:34.659Z,8.17
2023-04-03T06:37:34.623Z,8.50
2023-04-03T06:38:34.544Z,8.42
2023-04-03T06:39:34.511Z,8.55
2023-04-03T06:40:34.466Z,8.54
2023-04-03T06:41:35.371Z,8.97
2023-04-03T06:42:34.401Z,8.60
2023-04-03T06:43:34.587Z,8.75
2023-04-03T06:44:34.305Z,8.88
2023-04-03T06:45:34.268Z,8.75
2023-04-03T06:46:34.252Z,8.83
2023-04-03T06:47:34.232Z,8.86
2023-04-03T06:48:34.157Z,8.91
2023-04-03T06:49:34.137Z,9.42
2023-04-03T06:50:34.084Z,9.74
2023-04-03T06:51:34.053Z,9.65
2023-04-03T06:52:34.003Z,9.45
2023-04-03T06:53:33.986Z,9.52
2023-04-03T06:54:33.913Z,9.80
2023-04-03T06:55:33.888Z,10.25
2023-04-03T06:56:33.947Z,10.07
2023-04-03T06:57:33.895Z,10.02
2023-04-03T06:58:33.762Z,9.52
2023-04-03T06:59:33.736Z,9.92
2023-04-03T07:00:33.683Z,9.78
2023-04-03T07:01:33.695Z,9.35
2023-04-03T07:02:33.619Z,9.45
2023-04-03T07:03:34.531Z,9.62
2023-04-03T07:04:33.555Z,9.74
2023-04-03T07:05:33.496Z,9.62
2023-04-03T07:06:33.457Z,9.45
2023-04-03T07:07:33.409Z,9.24
2023-04-03T07:08:33.372Z,9.27
2023-04-03T07:09:33.341Z,9.59
2023-04-03T07:10:33.456Z,9.78
2023-04-03T07:11:33.270Z,9.86
2023-04-03T07:12:33.218Z,9.89
2023-04-03T07:13:33.183Z,9.73
2023-04-03T07:14:33.142Z,9.45
2023-04-03T07:15:33.120Z,9.49
2023-04-03T07:16:33.113Z,9.73
2023-04-03T07:17:33.082Z,9.62
2023-04-03T07:18:32.988Z,9.73
2023-04-03T07:19:32.968Z,9.80
2023-04-03T07:20:32.916Z,9.70
2023-04-03T07:21:32.877Z,9.78
2023-04-03T07:22:32.845Z,9.95
2023-04-03T07:23:33.013Z,9.13
2023-04-03T07:24:32.777Z,8.83
2023-04-03T07:25:32.751Z,9.08
2023-04-03T07:26:32.707Z,9.08
2023-04-03T07:27:32.660Z,9.01
2023-04-03T07:28:32.607Z,9.06
2023-04-03T07:29:32.573Z,8.76
2023-04-03T07:30:32.551Z,8.67
2023-04-03T07:31:32.588Z,8.43
2023-04-03T07:32:32.479Z,8.68
2023-04-03T07:33:32.425Z,9.19
2023-04-03T07:34:32.390Z,9.42
2023-04-03T07:35:32.356Z,9.12
2023-04-03T07:36:32.313Z,8.88
2023-04-03T07:37:32.276Z,8.22
2023-04-03T07:38:32.246Z,8.31
2023-04-03T07:39:32.197Z,8.55
2023-04-03T07:40:32.158Z,8.61
2023-04-03T07:41:32.135Z,8.83
2023-04-03T07:42:41.370Z,8.78
2023-04-03T07:43:32.082Z,8.29
2023-04-03T07:44:32.050Z,8.32
2023-04-03T07:45:32.028Z,8.47
2023-04-03T07:46:32.077Z,8.32
2023-04-03T07:47:31.964Z,8.47
2023-04-03T07:48:31.922Z,8.52
2023-04-03T07:49:34.810Z,8.47
2023-04-03T07:50:31.807Z,8.65
2023-04-03T07:51:31.759Z,8.58
2023-04-03T07:52:31.866Z,8.47
2023-04-03T07:53:31.677Z,8.67
2023-04-03T07:54:31.675Z,9.08
2023-04-03T07:55:32.488Z,9.45
2023-04-03T07:56:31.582Z,9.01
2023-04-03T07:57:31.624Z,8.88
2023-04-03T07:58:31.532Z,9.04
2023-04-03T07:59:31.462Z,9.06
2023-04-03T08:00:31.450Z,9.27
2023-04-03T08:01:31.382Z,9.20
2023-04-03T08:02:31.374Z,9.19
2023-04-03T08:03:31.460Z,9.03
2023-04-03T08:04:31.364Z,9.52
2023-04-03T08:05:31.255Z,9.52
2023-04-03T08:06:44.925Z,9.19
2023-04-03T08:07:31.156Z,9.56
2023-04-03T08:08:31.125Z,9.23
2023-04-03T08:09:31.112Z,9.15
2023-04-03T08:10:31.096Z,8.70
2023-04-03T08:11:31.082Z,8.79
2023-04-03T08:12:30.984Z,8.85
2023-04-03T08:13:30.972Z,9.08
2023-04-03T08:14:30.896Z,9.48
2023-04-03T08:15:30.855Z,9.75
2023-04-03T08:16:30.849Z,9.86
2023-04-03T08:17:30.837Z,9.41
2023-04-03T08:18:30.760Z,9.17
2023-04-03T08:19:30.723Z,8.86
2023-04-03T08:20:30.689Z,8.91
2023-04-03T08:21:30.652Z,9.27
2023-04-03T08:22:30.662Z,9.40
2023-04-03T08:23:30.582Z,9.42
2023-04-03T08:24:30.541Z,9.50
2023-04-03T08:25:30.514Z,9.80
2023-04-03T08:26:30.470Z,9.89
2023-04-03T08:27:30.427Z,9.96
2023-04-03T08:28:30.414Z,9.95
2023-04-03T08:29:30.962Z,9.71
2023-04-03T08:30:30.327Z,9.77
2023-04-03T08:31:30.275Z,9.80
2023-04-03T08:32:30.323Z,10.04
2023-04-03T08:33:30.237Z,10.06
2023-04-03T08:34:30.191Z,10.46
2023-04-03T08:35:30.390Z,10.65
2023-04-03T08:36:30.160Z,10.49
2023-04-03T08:37:30.787Z,10.47
2023-04-03T08:38:30.084Z,10.04
2023-04-03T08:39:30.003Z,9.78
2023-04-03T08:40:30.030Z,9.20
2023-04-03T08:41:29.936Z,9.27
2023-04-03T08:42:29.901Z,9.83
2023-04-03T08:43:29.941Z,10.17
2023-04-03T08:44:29.835Z,10.26
2023-04-03T08:45:29.833Z,10.10
2023-04-03T08:46:29.789Z,9.08
2023-04-03T08:47:29.765Z,8.93
2023-04-03T08:48:29.705Z,9.40
2023-04-03T08:49:29.696Z,9.71
2023-04-03T08:50:29.634Z,10.02
2023-04-03T08:51:29.599Z,9.93
2023-04-03T08:52:29.559Z,9.38
2023-04-03T08:53:29.554Z,9.45
2023-04-03T08:54:29.481Z,9.77
2023-04-03T08:55:29.439Z,10.34
2023-04-03T08:56:29.402Z,9.88
2023-04-03T08:57:29.413Z,9.45
2023-04-03T08:58:29.371Z,9.55
2023-04-03T08:59:29.371Z,9.53
2023-04-03T09:00:29.267Z,9.58
2023-04-03T09:01:29.265Z,9.75
2023-04-03T09:02:29.240Z,9.30
2023-04-03T09:03:29.170Z,9.16
2023-04-03T09:04:29.130Z,9.67
2023-04-03T09:05:29.116Z,10.18
2023-04-03T09:06:29.056Z,10.47
2023-04-03T09:07:29.038Z,10.54
2023-04-03T09:08:28.993Z,10.54
2023-04-03T09:09:28.957Z,10.75
2023-04-03T09:10:28.952Z,9.83
2023-04-03T09:11:28.877Z,9.34
2023-04-03T09:12:28.858Z,9.78
2023-04-03T09:13:28.829Z,10.10
2023-04-03T09:14:28.777Z,10.16
2023-04-03T09:15:38.508Z,9.92
2023-04-03T09:16:28.765Z,9.89
2023-04-03T09:17:28.681Z,9.99
2023-04-03T09:18:28.630Z,10.14
2023-04-03T09:19:28.588Z,10.32
2023-04-03T09:20:28.550Z,10.58
2023-04-03T09:21:28.520Z,11.11
2023-04-03T09:22:29.094Z,11.28
2023-04-03T09:23:28.461Z,11.12
2023-04-03T09:24:28.436Z,10.57
2023-04-03T09:25:29.253Z,10.46
2023-04-03T09:26:28.370Z,10.63
2023-04-03T09:27:28.348Z,10.90
2023-04-03T09:28:29.291Z,10.32
2023-04-03T09:29:28.249Z,10.43
2023-04-03T09:30:28.207Z,10.44
2023-04-03T09:31:28.313Z,10.39
2023-04-03T09:32:28.190Z,10.22
2023-04-03T09:33:28.145Z,10.35
2023-04-03T09:34:28.106Z,10.51
2023-04-03T09:35:36.372Z,10.58
2023-04-03T09:36:28.028Z,10.46
2023-04-03T09:37:27.998Z,10.20
2023-04-03T09:38:27.965Z,10.17
2023-04-03T09:39:27.913Z,10.29
2023-04-03T09:40:27.910Z,9.89
2023-04-03T09:41:27.845Z,9.67
2023-04-03T09:42:27.801Z,10.14
2023-04-03T09:43:27.799Z,10.22
2023-04-03T09:44:27.731Z,9.85
2023-04-03T09:45:27.696Z,9.92
2023-04-03T09:46:27.798Z,9.83
2023-04-03T09:47:27.746Z,9.99
2023-04-03T09:48:27.708Z,10.42
2023-04-03T09:49:27.594Z,10.87
2023-04-03T09:50:27.538Z,11.17
2023-04-03T09:51:27.484Z,11.36
2023-04-03T09:52:27.472Z,11.26
2023-04-03T09:53:27.428Z,11.09
2023-04-03T09:54:27.389Z,10.87
2023-04-03T09:55:27.374Z,10.83
2023-04-03T09:56:27.351Z,10.66
2023-04-03T09:57:27.369Z,11.06
2023-04-03T09:58:29.610Z,11.62
2023-04-03T09:59:27.217Z,11.19
2023-04-03T10:00:27.177Z,11.01
2023-04-03T10:01:27.257Z,11.12
2023-04-03T10:02:27.146Z,11.49
2023-04-03T10:03:27.737Z,11.69
2023-04-03T10:04:27.062Z,11.94
2023-04-03T10:05:27.040Z,11.98
2023-04-03T10:06:26.990Z,12.26
2023-04-03T10:07:26.947Z,11.93
2023-04-03T10:08:26.930Z,12.30
2023-04-03T10:09:26.873Z,12.41
2023-04-03T10:10:26.933Z,12.43
2023-04-03T10:11:26.792Z,11.54
2023-04-03T10:12:26.768Z,11.05
2023-04-03T10:13:26.763Z,10.47
2023-04-03T10:14:26.721Z,10.78
2023-04-03T10:15:26.668Z,10.81
2023-04-03T10:16:26.652Z,10.43
2023-04-03T10:17:26.671Z,10.47
2023-04-03T10:18:26.612Z,10.39
2023-04-03T10:19:26.602Z,10.57
2023-04-03T10:20:26.491Z,11.03
2023-04-03T10:21:27.755Z,11.06
2023-04-03T10:22:26.444Z,11.09
2023-04-03T10:23:26.406Z,10.99
2023-04-03T10:24:26.375Z,10.73
2023-04-03T10:25:26.362Z,10.76
2023-04-03T10:26:26.302Z,11.08
2023-04-03T10:27:26.251Z,11.09
2023-04-03T10:28:26.236Z,11.28
2023-04-03T10:29:26.182Z,11.26
2023-04-03T10:30:26.166Z,11.26
2023-04-03T10:31:26.137Z,10.90
2023-04-03T10:32:26.111Z,10.70
2023-04-03T10:33:26.050Z,10.38
2023-04-03T10:34:26.012Z,10.46
2023-04-03T10:35:26.054Z,10.49
2023-04-03T10:36:25.970Z,10.49
2023-04-03T10:37:25.914Z,10.54
2023-04-03T10:38:25.882Z,10.73
2023-04-03T10:39:25.849Z,11.01
2023-04-03T10:40:25.827Z,11.46
2023-04-03T10:41:25.778Z,11.98
2023-04-03T10:42:25.769Z,12.00
2023-04-03T10:43:25.716Z,12.13
2023-04-03T10:44:25.669Z,12.03
2023-04-03T10:45:25.634Z,11.93
2023-04-03T10:46:25.643Z,12.04
2023-04-03T10:47:25.614Z,11.81
2023-04-03T10:48:25.545Z,12.03
2023-04-03T10:49:25.492Z,11.96
2023-04-03T10:50:25.470Z,11.62
2023-04-03T10:51:25.546Z,11.75
2023-04-03T10:52:25.414Z,11.38
2023-04-03T10:53:25.369Z,11.16
2023-04-03T10:54:25.370Z,11.01
2023-04-03T10:55:25.302Z,10.70
2023-04-03T10:56:25.286Z,11.20
2023-04-03T10:57:25.273Z,11.69
2023-04-03T10:58:25.232Z,12.16
2023-04-03T10:59:25.177Z,12.40
2023-04-03T11:00:25.139Z,12.58
2023-04-03T11:01:25.173Z,12.88
2023-04-03T11:02:25.197Z,12.15
2023-04-03T11:03:25.125Z,12.25
2023-04-03T11:04:24.995Z,12.25
2023-04-03T11:05:24.977Z,12.51
2023-04-03T11:06:24.955Z,12.55
2023-04-03T11:07:24.994Z,12.13
2023-04-03T11:08:24.921Z,11.79
2023-04-03T11:09:24.824Z,11.59
2023-04-03T11:10:24.801Z,11.35
2023-04-03T11:11:24.767Z,10.90
2023-04-03T11:12:24.745Z,11.17
2023-04-03T11:13:24.697Z,11.39
2023-04-03T11:14:24.684Z,11.08
2023-04-03T11:15:24.637Z,11.24
2023-04-03T11:16:24.764Z,11.33
2023-04-03T11:17:24.554Z,10.95
2023-04-03T11:18:24.528Z,11.09
2023-04-03T11:19:24.500Z,11.26
2023-04-03T11:20:24.458Z,11.26
2023-04-03T11:21:24.421Z,11.24
2023-04-03T11:22:24.419Z,11.05
2023-04-03T11:23:25.515Z,11.01
2023-04-03T11:24:24.321Z,11.05
2023-04-03T11:25:24.307Z,10.80
2023-04-03T11:26:24.260Z,11.01
2023-04-03T11:27:24.227Z,11.36
2023-04-03T11:28:24.184Z,11.98
2023-04-03T11:29:34.304Z,12.34
2023-04-03T11:30:24.118Z,12.08
2023-04-03T11:31:24.129Z,11.46
2023-04-03T11:32:24.052Z,10.99
2023-04-03T11:33:24.014Z,11.01
2023-04-03T11:34:23.999Z,11.11
2023-04-03T11:35:23.943Z,11.31
2023-04-03T11:36:26.096Z,10.87
2023-04-03T11:37:23.890Z,10.73
2023-04-03T11:38:23.870Z,10.81
2023-04-03T11:39:23.892Z,11.03
2023-04-03T11:40:23.792Z,11.41
2023-04-03T11:41:23.740Z,11.36
2023-04-03T11:42:23.731Z,11.36
2023-04-03T11:43:23.675Z,11.11
2023-04-03T11:44:23.656Z,10.68
2023-04-03T11:45:23.727Z,10.60
2023-04-03T11:46:23.631Z,10.58
2023-04-03T11:47:23.567Z,10.84
2023-04-03T11:48:25.151Z,11.08
2023-04-03T11:49:23.480Z,11.51
2023-04-03T11:50:23.433Z,11.85
2023-04-03T11:51:23.399Z,12.40
2023-04-03T11:52:23.369Z,12.07
2023-04-03T11:53:23.330Z,11.48
2023-04-03T11:54:25.066Z,11.19
2023-04-03T11:55:23.339Z,11.46
2023-04-03T11:56:23.232Z,11.38
2023-04-03T11:57:23.233Z,11.35
2023-04-03T11:58:23.158Z,11.45
2023-04-03T11:59:23.126Z,11.44
2023-04-03T12:00:23.106Z,11.28
2023-04-03T12:01:23.072Z,11.41
2023-04-03T12:02:23.070Z,11.59
2023-04-03T12:03:23.054Z,11.77
2023-04-03T12:04:23.044Z,11.60
2023-04-03T12:05:22.917Z,11.59
2023-04-03T12:06:22.918Z,11.54
2023-04-03T12:07:22.855Z,11.77
2023-04-03T12:08:22.833Z,11.30
2023-04-03T12:09:22.822Z,11.33
2023-04-03T12:10:31.625Z,11.44
2023-04-03T12:11:22.797Z,11.24
2023-04-03T12:12:22.713Z,11.21
2023-04-03T12:13:22.651Z,11.24
2023-04-03T12:14:22.910Z,11.17
2023-04-03T12:15:22.584Z,11.06
2023-04-03T12:16:22.591Z,11.01
2023-04-03T12:17:22.518Z,10.68
2023-04-03T12:18:22.511Z,10.93
2023-04-03T12:19:26.609Z,11.09
2023-04-03T12:20:22.428Z,11.57
2023-04-03T12:21:22.437Z,11.41
2023-04-03T12:22:22.351Z,11.31
2023-04-03T12:23:22.318Z,11.38
2023-04-03T12:24:22.292Z,10.73
2023-04-03T12:25:22.246Z,10.51
2023-04-03T12:26:22.214Z,10.68
2023-04-03T12:27:22.194Z,10.54
2023-04-03T12:28:22.147Z,10.62
2023-04-03T12:29:22.133Z,10.75
2023-04-03T12:30:22.079Z,10.60
2023-04-03T12:31:22.100Z,10.35
2023-04-03T12:32:22.024Z,10.01
2023-04-03T12:33:22.014Z,9.86
2023-04-03T12:34:21.949Z,9.74
2023-04-03T12:35:21.926Z,9.74
2023-04-03T12:36:21.897Z,9.85
2023-04-03T12:37:21.859Z,9.70
2023-04-03T12:38:21.816Z,9.78
2023-04-03T12:39:21.794Z,9.62
2023-04-03T12:40:21.739Z,9.65
2023-04-03T12:41:21.713Z,9.71
2023-04-03T12:42:21.666Z,9.78
2023-04-03T12:43:21.732Z,9.80
2023-04-03T12:44:21.608Z,10.01
2023-04-03T12:45:21.589Z,10.04
2023-04-03T12:46:21.614Z,10.06
2023-04-03T12:47:21.500Z,10.07
2023-04-03T12:48:21.461Z,10.02
2023-04-03T12:49:21.430Z,10.02
2023-04-03T12:50:21.385Z,10.07
2023-04-03T12:51:21.372Z,10.10
2023-04-03T12:52:21.312Z,9.96
2023-04-03T12:53:21.294Z,9.86
2023-04-03T12:54:21.230Z,9.83
2023-04-03T12:55:21.293Z,10.07
2023-04-03T12:56:21.290Z,10.11
2023-04-03T12:57:21.184Z,9.98
2023-04-03T12:58:21.085Z,10.18
2023-04-03T12:59:21.125Z,10.20
2023-04-03T13:00:20.999Z,9.99
2023-04-03T13:01:21.033Z,9.96
2023-04-03T13:02:20.951Z,10.01
2023-04-03T13:03:20.998Z,10.01
2023-04-03T13:04:20.854Z,9.83
2023-04-03T13:05:20.820Z,9.71
2023-04-03T13:06:20.786Z,9.75
2023-04-03T13:07:20.734Z,9.74
2023-04-03T13:08:20.721Z,9.71
2023-04-03T13:09:20.698Z,9.81
2023-04-03T13:10:20.624Z,9.78
2023-04-03T13:11:20.593Z,9.71
2023-04-03T13:12:20.549Z,9.74